createdAt,value
2022-08-11T00:01:06.724Z,3.00
2022-08-11T00:03:43.762Z,2.90
2022-08-11T00:06:14.326Z,2.63
2022-08-11T00:08:43.812Z,2.92
2022-08-11T00:11:12.747Z,3.30
2022-08-11T00:13:45.820Z,3.28
2022-08-11T00:16:22.435Z,3.00
2022-08-11T00:18:51.437Z,3.00
2022-08-11T00:21:20.817Z,3.05
2022-08-11T00:24:08.672Z,3.50
2022-08-11T00:26:36.914Z,3.00
2022-08-11T00:29:11.177Z,3.40
2022-08-11T00:31:38.664Z,3.42
2022-08-11T00:34:11.226Z,3.65
2022-08-11T00:36:51.074Z,3.33
2022-08-11T00:39:21.284Z,3.53
2022-08-11T00:42:04.040Z,3.75
2022-08-11T00:45:07.070Z,3.55
2022-08-11T00:47:36.616Z,3.90
2022-08-11T00:50:03.474Z,3.30
2022-08-11T00:52:51.246Z,3.72
2022-08-11T00:55:47.264Z,4.20
2022-08-11T00:58:50.899Z,3.72
2022-08-11T01:01:18.027Z,3.63
2022-08-11T01:04:14.513Z,3.75
2022-08-11T01:06:50.522Z,3.77
2022-08-11T01:09:42.120Z,3.65
2022-08-11T01:12:36.371Z,4.15
2022-08-11T01:15:31.268Z,4.05
2022-08-11T01:18:45.543Z,3.80
2022-08-11T01:21:31.175Z,4.00
2022-08-11T01:24:20.077Z,4.47
2022-08-11T01:27:19.241Z,4.10
2022-08-11T01:30:24.469Z,4.43
2022-08-11T01:33:03.359Z,4.40
2022-08-11T01:36:04.413Z,4.40
2022-08-11T01:39:04.667Z,4.57
2022-08-11T01:42:34.470Z,4.07
2022-08-11T01:45:16.253Z,4.13
2022-08-11T01:48:16.313Z,3.75
2022-08-11T01:50:43.030Z,4.40
2022-08-11T01:53:43.630Z,4.50
2022-08-11T01:56:34.706Z,4.00
2022-08-11T01:59:23.379Z,4.40
2022-08-11T02:01:59.089Z,4.18
2022-08-11T02:04:47.077Z,3.92
2022-08-11T02:07:22.126Z,4.32
2022-08-11T02:10:39.346Z,4.32
2022-08-11T02:13:30.290Z,4.15
2022-08-11T02:16:19.374Z,4.50
2022-08-11T02:19:14.336Z,4.30
2022-08-11T02:22:21.630Z,4.47
2022-08-11T02:24:57.899Z,4.10
2022-08-11T02:27:34.662Z,4.53
2022-08-11T02:30:11.350Z,4.85
2022-08-11T02:33:14.429Z,4.60
2022-08-11T02:36:01.528Z,4.80
2022-08-11T02:38:55.401Z,4.60
2022-08-11T02:41:44.387Z,4.40
2022-08-11T02:44:29.449Z,4.57
2022-08-11T02:47:09.357Z,5.32
2022-08-11T02:50:02.540Z,4.90
2022-08-11T02:52:59.960Z,4.90
2022-08-11T02:55:57.576Z,4.95
2022-08-11T02:58:35.491Z,4.93
2022-08-11T03:01:19.137Z,5.35
2022-08-11T03:04:05.509Z,4.95
2022-08-11T03:06:52.995Z,5.25
2022-08-11T03:10:10.003Z,5.43
2022-08-11T03:13:09.118Z,5.70
2022-08-11T03:16:16.434Z,5.28
2022-08-11T03:19:11.602Z,4.85
2022-08-11T03:22:01.636Z,5.78
2022-08-11T03:24:52.481Z,5.35
2022-08-11T03:28:03.445Z,5.43
2022-08-11T03:30:52.889Z,5.40
2022-08-11T03:33:52.629Z,5.63
2022-08-11T03:36:25.385Z,5.82
2022-08-11T03:39:24.444Z,5.65
2022-08-11T03:42:07.593Z,5.22
2022-08-11T03:45:01.841Z,5.55
2022-08-11T03:47:52.617Z,5.65
2022-08-11T03:50:56.216Z,6.10
2022-08-11T03:53:45.406Z,6.32
2022-08-11T03:56:21.362Z,5.53
2022-08-11T03:59:25.803Z,5.90
2022-08-11T04:02:20.262Z,6.35
2022-08-11T04:05:23.117Z,5.78
2022-08-11T04:08:16.475Z,5.57
2022-08-11T04:11:17.470Z,5.15
2022-08-11T04:14:52.280Z,5.43
2022-08-11T04:17:22.757Z,5.38
2022-08-11T04:20:02.115Z,6.03
2022-08-11T04:22:40.889Z,5.97
2022-08-11T04:25:29.289Z,6.25
2022-08-11T04:28:29.180Z,5.80
2022-08-11T04:31:10.851Z,5.85
2022-08-11T04:33:56.592Z,5.88
2022-08-11T04:37:02.339Z,6.47
2022-08-11T04:39:34.897Z,5.85
2022-08-11T04:43:06.092Z,5.97
2022-08-11T04:46:01.629Z,6.55
2022-08-11T04:49:06.040Z,5.80
2022-08-11T04:52:40.195Z,6.07
2022-08-11T04:56:05.589Z,6.40
2022-08-11T04:59:09.321Z,6.10
2022-08-11T05:01:41.852Z,6.55
2022-08-11T05:05:02.153Z,6.68
2022-08-11T05:07:49.356Z,5.88
2022-08-11T05:10:54.096Z,6.10
2022-08-11T05:13:51.842Z,6.07
2022-08-11T05:16:51.495Z,5.57
2022-08-11T05:19:39.802Z,6.05
2022-08-11T05:22:30.178Z,6.20
2022-08-11T05:26:42.857Z,5.95
2022-08-11T05:28:36.587Z,4.90
2022-08-11T05:31:35.198Z,5.50
2022-08-11T05:34:36.803Z,5.60
2022-08-11T05:37:25.085Z,5.75
2022-08-11T05:40:26.685Z,5.40
2022-08-11T05:43:32.548Z,5.72
2022-08-11T05:46:23.830Z,5.82
2022-08-11T05:49:10.760Z,5.25
2022-08-11T05:52:05.561Z,5.35
2022-08-11T05:54:59.852Z,5.45
2022-08-11T05:57:50.647Z,5.18
2022-08-11T06:00:19.864Z,5.45
2022-08-11T06:02:56.504Z,5.10
2022-08-11T06:05:37.327Z,5.28
2022-08-11T06:08:12.404Z,4.88
2022-08-11T06:10:49.984Z,4.55
2022-08-11T06:13:26.270Z,4.68
2022-08-11T06:16:07.320Z,4.38
2022-08-11T06:18:56.031Z,4.25
2022-08-11T06:21:23.288Z,4.53
2022-08-11T06:23:50.504Z,4.50
2022-08-11T06:26:17.862Z,3.90
2022-08-11T06:28:46.261Z,4.03
2022-08-11T06:31:16.755Z,4.38
2022-08-11T06:34:11.175Z,4.47
2022-08-11T06:36:56.525Z,4.75
2022-08-11T06:39:37.797Z,4.03
2022-08-11T06:42:09.550Z,4.05
2022-08-11T06:45:08.346Z,4.15
2022-08-11T06:47:35.871Z,4.07
2022-08-11T06:50:53.971Z,4.22
2022-08-11T06:53:26.389Z,3.95
2022-08-11T06:56:26.246Z,3.90
2022-08-11T06:59:18.454Z,4.13
2022-08-11T07:02:04.969Z,3.90
2022-08-11T07:04:43.960Z,4.20
2022-08-11T07:07:44.468Z,3.95
2022-08-11T07:11:09.623Z,3.33
2022-08-11T07:13:58.010Z,3.40
2022-08-11T07:16:48.253Z,2.78
2022-08-11T07:19:39.105Z,2.97
2022-08-11T07:22:30.511Z,2.95
2022-08-11T07:25:33.596Z,3.50
2022-08-11T07:28:25.739Z,3.10
2022-08-11T07:31:00.859Z,2.80
2022-08-11T07:34:07.401Z,2.50
2022-08-11T07:36:31.273Z,2.90
2022-08-11T07:39:00.252Z,2.75
2022-08-11T07:41:31.140Z,2.80
2022-08-11T07:44:09.233Z,2.85
2022-08-11T07:47:02.252Z,2.58
2022-08-11T07:49:54.109Z,2.65
2022-08-11T07:52:30.925Z,2.40
2022-08-11T07:55:06.767Z,3.38
2022-08-11T07:58:15.152Z,2.90
2022-08-11T08:01:08.631Z,2.40
2022-08-11T08:03:57.864Z,2.42
2022-08-11T08:06:44.727Z,2.50
2022-08-11T08:09:31.233Z,2.75
2022-08-11T08:12:20.626Z,3.50
2022-08-11T08:15:06.390Z,2.30
2022-08-11T08:18:10.070Z,2.75
2022-08-11T08:20:40.171Z,2.40
2022-08-11T08:23:07.648Z,2.67
2022-08-11T08:25:39.311Z,2.53
2022-08-11T08:28:10.830Z,2.60
2022-08-11T08:30:47.534Z,2.67
2022-08-11T08:33:19.653Z,2.85
2022-08-11T08:35:54.344Z,2.90
2022-08-11T08:38:23.259Z,3.40
2022-08-11T08:40:55.960Z,2.72
2022-08-11T08:43:24.264Z,2.97
2022-08-11T08:45:55.665Z,2.72
2022-08-11T08:48:25.823Z,2.92
2022-08-11T08:51:21.845Z,2.60
2022-08-11T08:53:53.435Z,2.72
2022-08-11T08:56:28.293Z,2.92
2022-08-11T08:58:57.975Z,2.63
2022-08-11T09:01:27.132Z,2.03
2022-08-11T09:04:02.818Z,2.60
2022-08-11T09:06:32.976Z,2.58
2022-08-11T09:09:00.026Z,2.70
2022-08-11T09:11:45.590Z,2.22
2022-08-11T09:14:15.077Z,2.80
2022-08-11T09:16:43.782Z,2.20
2022-08-11T09:19:13.914Z,2.70
2022-08-11T09:22:17.322Z,2.38
2022-08-11T09:25:05.593Z,3.13
2022-08-11T09:27:50.508Z,2.45
2022-08-11T09:30:20.055Z,2.80
2022-08-11T09:32:47.652Z,2.60
2022-08-11T09:35:14.559Z,2.80
2022-08-11T09:38:00.790Z,2.47
2022-08-11T09:43:24.549Z,2.70
2022-08-11T09:45:57.561Z,2.30
2022-08-11T09:48:26.050Z,2.58
2022-08-11T09:50:57.396Z,2.30
2022-08-11T09:53:37.187Z,2.83
2022-08-11T09:56:48.351Z,2.58
2022-08-11T09:59:17.990Z,2.50
2022-08-11T10:01:50.503Z,2.78
2022-08-11T10:04:34.951Z,2.13
2022-08-11T10:07:10.598Z,2.53
2022-08-11T10:10:05.671Z,2.35
2022-08-11T10:12:40.786Z,2.22
2022-08-11T10:15:34.890Z,2.60
2022-08-11T10:18:29.920Z,2.15
2022-08-11T10:21:07.118Z,2.47
2022-08-11T10:24:00.515Z,2.33
2022-08-11T10:26:52.344Z,2.38
2022-08-11T10:29:44.557Z,2.30
2022-08-11T10:32:49.442Z,2.60
2022-08-11T10:35:28.046Z,2.20
2022-08-11T10:38:07.251Z,2.50
2022-08-11T10:40:39.670Z,2.78
2022-08-11T10:43:13.201Z,3.10
2022-08-11T10:46:05.481Z,2.55
2022-08-11T10:48:38.155Z,2.35
2022-08-11T10:51:14.970Z,2.63
2022-08-11T10:54:05.564Z,2.50
2022-08-11T10:56:54.443Z,2.35
2022-08-11T10:59:23.279Z,2.30
2022-08-11T11:01:52.458Z,2.30
2022-08-11T11:04:24.923Z,2.67
2022-08-11T11:07:15.054Z,2.28
2022-08-11T11:09:47.528Z,2.35
2022-08-11T11:12:43.139Z,2.38
2022-08-11T11:15:47.419Z,2.35
2022-08-11T11:19:00.522Z,1.75
2022-08-11T11:21:49.834Z,2.10
2022-08-11T11:24:51.595Z,2.20
2022-08-11T11:27:28.948Z,2.42
2022-08-11T11:30:16.689Z,2.15
2022-08-11T11:33:22.702Z,2.72
2022-08-11T11:36:14.426Z,2.50
2022-08-11T11:38:42.536Z,2.28
2022-08-11T11:41:26.360Z,2.10
2022-08-11T11:44:01.387Z,2.03
2022-08-11T11:46:38.580Z,2.15
2022-08-11T11:52:33.604Z,2.03
2022-08-11T11:55:05.215Z,1.88
2022-08-11T12:01:07.309Z,2.13
2022-08-11T12:04:01.306Z,2.30
2022-08-11T12:07:17.232Z,2.25
2022-08-11T12:10:25.395Z,2.05
2022-08-11T12:25:43.109Z,1.80
2022-08-11T12:28:45.929Z,1.95
2022-08-11T12:31:13.456Z,2.00
2022-08-11T12:33:44.090Z,1.60
2022-08-11T12:36:16.161Z,1.70
2022-08-11T12:38:51.540Z,1.73
2022-08-11T12:41:53.422Z,1.98
2022-08-11T12:44:45.189Z,1.90
2022-08-11T12:47:19.599Z,1.85
2022-08-11T12:50:39.012Z,1.70
2022-08-11T12:53:10.537Z,1.80
2022-08-11T12:59:27.070Z,1.73
2022-08-11T13:02:16.948Z,1.90
2022-08-11T13:05:06.319Z,1.63
2022-08-11T13:11:21.413Z,1.67
2022-08-11T13:14:27.978Z,2.10
2022-08-11T13:20:25.585Z,1.55
2022-08-11T13:23:17.881Z,1.75
2022-08-11T13:26:24.863Z,2.13
2022-08-11T13:29:54.003Z,2.00
2022-08-11T13:32:28.600Z,1.95
2022-08-11T13:34:56.490Z,1.92
2022-08-11T13:38:18.532Z,1.70
2022-08-11T13:40:33.308Z,1.70
2022-08-11T13:43:06.278Z,1.52
2022-08-11T13:45:40.588Z,1.90
2022-08-11T13:48:28.526Z,1.95
2022-08-11T13:51:16.463Z,1.80
2022-08-11T13:53:43.839Z,1.90
2022-08-11T13:56:19.683Z,1.65
2022-08-11T13:58:56.892Z,1.70
2022-08-11T14:02:03.789Z,1.80
2022-08-11T14:05:00.719Z,1.70
2022-08-11T14:08:47.350Z,1.88
2022-08-11T14:16:26.067Z,1.70
2022-08-11T14:19:35.445Z,1.60
2022-08-11T14:22:08.667Z,1.70
2022-08-11T14:28:35.062Z,1.92
2022-08-11T14:34:22.925Z,1.70
2022-08-11T14:37:23.030Z,1.90
2022-08-11T14:50:09.656Z,1.58
2022-08-11T14:51:55.900Z,1.60
2022-08-11T14:54:51.538Z,1.65
2022-08-11T15:02:00.185Z,1.42
2022-08-11T15:04:36.877Z,1.60
2022-08-11T15:07:17.498Z,1.55
2022-08-11T15:12:52.819Z,1.50
2022-08-11T15:15:44.036Z,1.42
2022-08-11T15:18:31.036Z,1.75
2022-08-11T15:21:30.082Z,1.50
2022-08-11T15:24:18.376Z,1.70
2022-08-11T15:27:11.383Z,1.70
2022-08-11T15:30:01.475Z,1.52
2022-08-11T15:32:52.456Z,1.50
2022-08-11T15:35:38.816Z,1.67
2022-08-11T15:38:28.226Z,1.50
2022-08-11T15:41:20.330Z,1.90
2022-08-11T15:44:19.322Z,1.92
2022-08-11T15:46:56.097Z,1.85
2022-08-11T15:52:19.270Z,1.85
2022-08-11T15:54:58.698Z,1.67
2022-08-11T15:57:45.654Z,2.00
2022-08-11T16:04:05.686Z,1.55
2022-08-11T16:06:33.579Z,1.52
2022-08-11T16:09:18.080Z,1.55
2022-08-11T16:11:50.018Z,1.65
2022-08-11T16:14:37.664Z,1.90
2022-08-11T16:17:11.581Z,1.70
2022-08-11T16:20:10.079Z,1.63
2022-08-11T16:23:01.503Z,1.90
2022-08-11T16:27:02.911Z,1.70
2022-08-11T16:28:44.491Z,1.70
2022-08-11T16:31:15.935Z,2.20
2022-08-11T16:33:52.514Z,2.30
2022-08-11T16:36:44.478Z,1.92
2022-08-11T16:39:24.983Z,1.83
2022-08-11T16:43:05.214Z,2.10
2022-08-11T16:45:26.518Z,2.55
2022-08-11T16:48:35.060Z,2.15
2022-08-11T16:50:55.180Z,2.05
2022-08-11T16:53:22.938Z,2.10
2022-08-11T16:56:20.556Z,2.33
2022-08-11T16:59:18.321Z,1.83
2022-08-11T17:02:08.270Z,1.45
2022-08-11T17:05:04.828Z,1.70
2022-08-11T17:07:51.515Z,1.65
2022-08-11T17:10:57.801Z,1.70
2022-08-11T17:13:50.931Z,1.90
2022-08-11T17:16:23.972Z,1.70
2022-08-11T17:19:13.746Z,1.60
2022-08-11T17:22:10.819Z,1.45
2022-08-11T17:24:48.199Z,1.70
2022-08-11T17:27:25.481Z,1.55
2022-08-11T17:30:09.156Z,1.42
2022-08-11T17:33:05.679Z,1.83
2022-08-11T17:35:55.122Z,1.50
2022-08-11T17:38:27.139Z,1.50
2022-08-11T17:41:23.743Z,1.35
2022-08-11T17:44:13.691Z,1.40
2022-08-11T17:47:08.012Z,1.70
2022-08-11T17:50:16.346Z,1.60
2022-08-11T17:57:36.423Z,1.60
2022-08-11T18:00:21.753Z,1.52
2022-08-11T18:03:17.623Z,1.58
2022-08-11T18:06:01.865Z,1.48
2022-08-11T18:12:20.468Z,1.40
2022-08-11T18:15:31.726Z,1.40
2022-08-11T18:18:21.588Z,1.80
2022-08-11T18:21:09.101Z,1.58
2022-08-11T18:23:54.712Z,1.95
2022-08-11T18:26:42.690Z,1.80
2022-08-11T18:29:31.330Z,1.45
2022-08-11T18:32:46.165Z,1.50
2022-08-11T18:35:36.660Z,1.80
2022-08-11T18:38:25.202Z,1.65
2022-08-11T18:41:11.551Z,1.40
2022-08-11T18:44:04.567Z,1.63
2022-08-11T18:46:57.110Z,1.67
2022-08-11T18:50:01.691Z,1.60
2022-08-11T18:52:54.112Z,1.75
2022-08-11T18:55:39.884Z,1.50
2022-08-11T18:58:30.360Z,1.70
2022-08-11T19:01:18.843Z,1.80
2022-08-11T19:04:11.289Z,1.60
2022-08-11T19:06:58.404Z,1.35
2022-08-11T19:09:47.195Z,1.70
2022-08-11T19:12:33.174Z,1.60
2022-08-11T19:15:21.025Z,1.75
2022-08-11T19:18:07.635Z,1.95
2022-08-11T19:20:55.040Z,1.65
2022-08-11T19:23:49.282Z,1.65
2022-08-11T19:26:35.744Z,1.65
2022-08-11T19:30:12.037Z,1.73
2022-08-11T19:32:32.709Z,1.50
2022-08-11T19:35:19.932Z,1.70
2022-08-11T19:38:06.394Z,1.83
2022-08-11T19:40:53.422Z,1.80
2022-08-11T19:43:39.562Z,2.15
2022-08-11T19:46:26.630Z,1.98
2022-08-11T19:49:14.299Z,1.65
2022-08-11T19:52:02.477Z,2.00
2022-08-11T19:54:51.794Z,2.13
2022-08-11T19:57:40.325Z,2.00
2022-08-11T20:00:34.707Z,1.85
2022-08-11T20:03:22.967Z,2.20
2022-08-11T20:06:09.346Z,1.95
2022-08-11T20:09:00.437Z,2.05
2022-08-11T20:11:50.395Z,2.13
2022-08-11T20:14:39.155Z,2.25
2022-08-11T20:17:29.658Z,2.45
2022-08-11T20:20:18.284Z,2.65
2022-08-11T20:23:06.953Z,2.63
2022-08-11T20:26:03.395Z,2.42
2022-08-11T20:28:55.559Z,2.33
2022-08-11T20:34:29.983Z,2.20
2022-08-11T20:37:18.488Z,2.50
2022-08-11T20:40:05.434Z,2.05
2022-08-11T20:42:53.114Z,2.03
2022-08-11T20:45:55.167Z,2.10
2022-08-11T20:48:44.027Z,2.25
2022-08-11T20:51:33.894Z,2.35
2022-08-11T20:54:43.052Z,2.00
2022-08-11T20:57:58.980Z,2.10
2022-08-11T21:00:39.990Z,1.75
2022-08-11T21:03:35.478Z,1.95
2022-08-11T21:06:31.337Z,1.80
2022-08-11T21:09:21.065Z,1.90
2022-08-11T21:12:13.348Z,1.83
2022-08-11T21:14:59.828Z,1.73
2022-08-11T21:18:00.917Z,1.92
2022-08-11T21:20:57.849Z,2.00
2022-08-11T21:23:48.870Z,1.90
2022-08-11T21:26:37.049Z,2.17
2022-08-11T21:29:25.335Z,1.90
2022-08-11T21:32:12.570Z,2.15
2022-08-11T21:35:01.908Z,2.28
2022-08-11T21:37:50.288Z,1.77
2022-08-11T21:40:40.530Z,2.08
2022-08-11T21:43:27.173Z,1.70
2022-08-11T21:46:14.253Z,2.00
2022-08-11T21:51:45.224Z,2.20
2022-08-11T21:54:31.881Z,2.10
2022-08-11T21:57:18.931Z,1.90
2022-08-11T22:02:58.730Z,2.17
2022-08-11T22:05:48.310Z,2.40
2022-08-11T22:08:34.289Z,2.30
2022-08-11T22:11:32.297Z,2.17
2022-08-11T22:14:22.102Z,2.28
2022-08-11T22:17:07.855Z,1.90
2022-08-11T22:19:55.645Z,2.25
2022-08-11T22:22:51.855Z,2.15
2022-08-11T22:25:39.276Z,1.92
2022-08-11T22:28:39.163Z,2.20
2022-08-11T22:31:26.812Z,2.20
2022-08-11T22:34:12.417Z,1.83
2022-08-11T22:37:00.372Z,2.20
2022-08-11T22:40:02.060Z,1.92
2022-08-11T22:42:49.666Z,2.30
2022-08-11T22:45:35.274Z,2.45
2022-08-11T22:48:25.853Z,2.20
2022-08-11T22:51:15.960Z,2.33
2022-08-11T22:54:03.210Z,2.13
2022-08-11T22:56:50.342Z,2.33
2022-08-11T22:59:38.213Z,2.25
2022-08-11T23:02:25.514Z,2.80
2022-08-11T23:05:12.764Z,2.47
2022-08-11T23:07:58.989Z,2.65
2022-08-11T23:10:45.882Z,2.53
2022-08-11T23:16:18.324Z,2.25
2022-08-11T23:19:04.828Z,2.50
2022-08-11T23:24:36.383Z,2.88
2022-08-11T23:27:23.224Z,2.90
2022-08-11T23:30:11.399Z,2.50
2022-08-11T23:32:58.150Z,2.67
2022-08-11T23:35:53.716Z,2.40
2022-08-11T23:38:43.947Z,2.30
2022-08-11T23:41:33.225Z,2.35
2022-08-11T23:44:23.895Z,2.95
2022-08-11T23:47:14.578Z,2.53
2022-08-11T23:50:01.287Z,2.53
2022-08-11T23:52:47.674Z,2.80
2022-08-11T23:58:41.944Z,2.97
